sensor_id;sensor_type;location;lat;lon;timestamp;P1;durP1;ratioP1;P2;durP2;ratioP2
35592;SDS011;64447;52.140;5.602;2023-03-11T00:01:40;7.63;;;2.60;;
35592;SDS011;64447;52.140;5.602;2023-03-11T00:04:06;7.70;;;2.17;;
35592;SDS011;64447;52.140;5.602;2023-03-11T00:06:35;5.53;;;2.40;;
35592;SDS011;64447;52.140;5.602;2023-03-11T00:09:00;6.65;;;2.30;;
35592;SDS011;64447;52.140;5.602;2023-03-11T00:11:26;7.20;;;2.28;;
35592;SDS011;64447;52.140;5.602;2023-03-11T00:13:51;6.10;;;2.80;;
35592;SDS011;64447;52.140;5.602;2023-03-11T00:16:17;7.80;;;2.97;;
35592;SDS011;64447;52.140;5.602;2023-03-11T00:18:43;7.80;;;2.88;;
35592;SDS011;64447;52.140;5.602;2023-03-11T00:21:15;6.57;;;2.30;;
35592;SDS011;64447;52.140;5.602;2023-03-11T00:23:41;6.38;;;2.28;;
35592;SDS011;64447;52.140;5.602;2023-03-11T00:29:29;5.78;;;2.45;;
35592;SDS011;64447;52.140;5.602;2023-03-11T00:31:54;6.53;;;2.08;;
35592;SDS011;64447;52.140;5.602;2023-03-11T00:34:20;6.45;;;2.25;;
35592;SDS011;64447;52.140;5.602;2023-03-11T00:36:46;5.65;;;3.00;;
35592;SDS011;64447;52.140;5.602;2023-03-11T00:39:11;3.80;;;1.85;;
35592;SDS011;64447;52.140;5.602;2023-03-11T00:41:37;6.82;;;1.92;;
35592;SDS011;64447;52.140;5.602;2023-03-11T00:44:02;6.32;;;2.28;;
35592;SDS011;64447;52.140;5.602;2023-03-11T00:46:28;4.82;;;2.20;;
35592;SDS011;64447;52.140;5.602;2023-03-11T00:48:55;5.93;;;1.90;;
35592;SDS011;64447;52.140;5.602;2023-03-11T00:51:20;6.97;;;1.85;;
35592;SDS011;64447;52.140;5.602;2023-03-11T00:53:46;10.85;;;2.38;;
35592;SDS011;64447;52.140;5.602;2023-03-11T00:59:34;3.63;;;1.85;;
35592;SDS011;64447;52.140;5.602;2023-03-11T01:02:00;4.82;;;1.75;;
35592;SDS011;64447;52.140;5.602;2023-03-11T01:04:25;3.75;;;1.95;;
35592;SDS011;64447;52.140;5.602;2023-03-11T01:06:51;4.25;;;1.85;;
35592;SDS011;64447;52.140;5.602;2023-03-11T01:09:16;3.35;;;2.15;;
35592;SDS011;64447;52.140;5.602;2023-03-11T01:11:42;6.47;;;1.90;;
35592;SDS011;64447;52.140;5.602;2023-03-11T01:14:08;5.03;;;1.88;;
35592;SDS011;64447;52.140;5.602;2023-03-11T01:16:33;5.47;;;1.90;;
35592;SDS011;64447;52.140;5.602;2023-03-11T01:18:59;5.78;;;1.92;;
35592;SDS011;64447;52.140;5.602;2023-03-11T01:21:25;6.18;;;2.03;;
35592;SDS011;64447;52.140;5.602;2023-03-11T01:23:50;5.93;;;2.08;;
35592;SDS011;64447;52.140;5.602;2023-03-11T01:29:37;5.00;;;2.13;;
35592;SDS011;64447;52.140;5.602;2023-03-11T01:32:03;4.57;;;1.92;;
35592;SDS011;64447;52.140;5.602;2023-03-11T01:34:29;3.35;;;1.92;;
35592;SDS011;64447;52.140;5.602;2023-03-11T01:36:54;5.55;;;2.35;;
35592;SDS011;64447;52.140;5.602;2023-03-11T01:39:20;4.65;;;1.90;;
35592;SDS011;64447;52.140;5.602;2023-03-11T01:45:23;5.07;;;2.15;;
35592;SDS011;64447;52.140;5.602;2023-03-11T01:48:05;4.50;;;1.80;;
35592;SDS011;64447;52.140;5.602;2023-03-11T01:50:35;3.72;;;1.80;;
35592;SDS011;64447;52.140;5.602;2023-03-11T01:53:10;5.90;;;2.33;;
35592;SDS011;64447;52.140;5.602;2023-03-11T01:55:38;6.10;;;2.20;;
35592;SDS011;64447;52.140;5.602;2023-03-11T01:58:05;7.40;;;2.42;;
35592;SDS011;64447;52.140;5.602;2023-03-11T02:00:35;6.63;;;1.95;;
35592;SDS011;64447;52.140;5.602;2023-03-11T02:03:01;4.57;;;1.90;;
35592;SDS011;64447;52.140;5.602;2023-03-11T02:05:35;4.18;;;1.58;;
35592;SDS011;64447;52.140;5.602;2023-03-11T02:08:01;2.53;;;1.75;;
35592;SDS011;64447;52.140;5.602;2023-03-11T02:10:27;4.28;;;2.03;;
35592;SDS011;64447;52.140;5.602;2023-03-11T02:12:55;4.90;;;1.58;;
35592;SDS011;64447;52.140;5.602;2023-03-11T02:15:21;4.25;;;1.80;;
35592;SDS011;64447;52.140;5.602;2023-03-11T02:17:48;4.05;;;1.52;;
35592;SDS011;64447;52.140;5.602;2023-03-11T02:22:56;3.80;;;1.40;;
35592;SDS011;64447;52.140;5.602;2023-03-11T02:28:14;3.85;;;1.80;;
35592;SDS011;64447;52.140;5.602;2023-03-11T02:30:43;6.60;;;1.25;;
35592;SDS011;64447;52.140;5.602;2023-03-11T02:33:09;4.35;;;1.42;;
35592;SDS011;64447;52.140;5.602;2023-03-11T02:35:37;7.85;;;1.70;;
35592;SDS011;64447;52.140;5.602;2023-03-11T02:38:02;2.95;;;1.92;;
35592;SDS011;64447;52.140;5.602;2023-03-11T02:40:35;2.38;;;1.20;;
35592;SDS011;64447;52.140;5.602;2023-03-11T02:43:06;7.30;;;2.22;;
35592;SDS011;64447;52.140;5.602;2023-03-11T02:45:35;3.78;;;1.25;;
35592;SDS011;64447;52.140;5.602;2023-03-11T02:48:04;2.58;;;1.60;;
35592;SDS011;64447;52.140;5.602;2023-03-11T02:50:32;6.15;;;1.33;;
35592;SDS011;64447;52.140;5.602;2023-03-11T02:53:01;4.53;;;1.85;;
35592;SDS011;64447;52.140;5.602;2023-03-11T02:55:27;5.22;;;1.85;;
35592;SDS011;64447;52.140;5.602;2023-03-11T02:57:52;7.20;;;1.30;;
35592;SDS011;64447;52.140;5.602;2023-03-11T03:00:18;3.33;;;1.00;;
35592;SDS011;64447;52.140;5.602;2023-03-11T03:02:44;5.05;;;1.30;;
35592;SDS011;64447;52.140;5.602;2023-03-11T03:05:10;4.20;;;1.35;;
35592;SDS011;64447;52.140;5.602;2023-03-11T03:07:37;5.75;;;1.45;;
35592;SDS011;64447;52.140;5.602;2023-03-11T03:10:03;5.28;;;1.70;;
35592;SDS011;64447;52.140;5.602;2023-03-11T03:12:30;2.05;;;1.10;;
35592;SDS011;64447;52.140;5.602;2023-03-11T03:14:56;5.45;;;1.85;;
35592;SDS011;64447;52.140;5.602;2023-03-11T03:17:22;3.95;;;1.38;;
35592;SDS011;64447;52.140;5.602;2023-03-11T03:19:48;4.45;;;1.45;;
35592;SDS011;64447;52.140;5.602;2023-03-11T03:22:14;6.32;;;2.03;;
35592;SDS011;64447;52.140;5.602;2023-03-11T03:24:39;4.95;;;1.23;;
35592;SDS011;64447;52.140;5.602;2023-03-11T03:30:27;4.10;;;1.58;;
35592;SDS011;64447;52.140;5.602;2023-03-11T03:32:53;5.28;;;1.67;;
35592;SDS011;64447;52.140;5.602;2023-03-11T03:35:19;2.65;;;1.20;;
35592;SDS011;64447;52.140;5.602;2023-03-11T03:37:45;2.45;;;1.33;;
35592;SDS011;64447;52.140;5.602;2023-03-11T03:40:11;5.70;;;1.50;;
35592;SDS011;64447;52.140;5.602;2023-03-11T03:42:37;5.05;;;1.77;;
35592;SDS011;64447;52.140;5.602;2023-03-11T03:45:04;2.17;;;0.98;;
35592;SDS011;64447;52.140;5.602;2023-03-11T03:47:34;3.10;;;1.35;;
35592;SDS011;64447;52.140;5.602;2023-03-11T03:50:01;3.72;;;1.10;;
35592;SDS011;64447;52.140;5.602;2023-03-11T03:52:30;4.28;;;1.23;;
35592;SDS011;64447;52.140;5.602;2023-03-11T03:54:56;2.35;;;1.20;;
35592;SDS011;64447;52.140;5.602;2023-03-11T04:00:43;3.50;;;1.30;;
35592;SDS011;64447;52.140;5.602;2023-03-11T04:03:09;5.65;;;2.53;;
35592;SDS011;64447;52.140;5.602;2023-03-11T04:05:35;3.13;;;2.08;;
35592;SDS011;64447;52.140;5.602;2023-03-11T04:08:00;2.50;;;1.70;;
35592;SDS011;64447;52.140;5.602;2023-03-11T04:10:26;4.65;;;1.80;;
35592;SDS011;64447;52.140;5.602;2023-03-11T04:12:52;3.42;;;1.48;;
35592;SDS011;64447;52.140;5.602;2023-03-11T04:15:17;2.72;;;1.42;;
35592;SDS011;64447;52.140;5.602;2023-03-11T04:17:43;4.57;;;2.10;;
35592;SDS011;64447;52.140;5.602;2023-03-11T04:20:09;4.45;;;1.40;;
35592;SDS011;64447;52.140;5.602;2023-03-11T04:22:35;6.97;;;1.83;;
35592;SDS011;64447;52.140;5.602;2023-03-11T04:25:01;4.47;;;1.55;;
35592;SDS011;64447;52.140;5.602;2023-03-11T04:30:48;3.13;;;1.30;;
35592;SDS011;64447;52.140;5.602;2023-03-11T04:33:14;4.03;;;1.88;;
35592;SDS011;64447;52.140;5.602;2023-03-11T04:35:39;5.95;;;1.88;;
35592;SDS011;64447;52.140;5.602;2023-03-11T04:38:05;6.63;;;1.77;;
35592;SDS011;64447;52.140;5.602;2023-03-11T04:40:30;3.67;;;1.83;;
35592;SDS011;64447;52.140;5.602;2023-03-11T04:42:56;2.53;;;1.70;;
35592;SDS011;64447;52.140;5.602;2023-03-11T04:45:22;4.32;;;1.70;;
35592;SDS011;64447;52.140;5.602;2023-03-11T04:47:50;5.03;;;1.98;;
35592;SDS011;64447;52.140;5.602;2023-03-11T04:50:16;2.70;;;1.80;;
35592;SDS011;64447;52.140;5.602;2023-03-11T04:52:42;1.88;;;1.42;;
35592;SDS011;64447;52.140;5.602;2023-03-11T04:55:09;4.85;;;1.50;;
35592;SDS011;64447;52.140;5.602;2023-03-11T05:00:57;5.75;;;1.52;;
35592;SDS011;64447;52.140;5.602;2023-03-11T05:03:22;3.47;;;1.38;;
35592;SDS011;64447;52.140;5.602;2023-03-11T05:05:48;5.30;;;1.70;;
35592;SDS011;64447;52.140;5.602;2023-03-11T05:08:14;4.65;;;1.50;;
35592;SDS011;64447;52.140;5.602;2023-03-11T05:10:39;4.18;;;1.52;;
35592;SDS011;64447;52.140;5.602;2023-03-11T05:13:06;4.28;;;1.48;;
35592;SDS011;64447;52.140;5.602;2023-03-11T05:15:32;1.80;;;1.23;;
35592;SDS011;64447;52.140;5.602;2023-03-11T05:17:58;3.83;;;1.55;;
35592;SDS011;64447;52.140;5.602;2023-03-11T05:20:23;5.28;;;1.75;;
35592;SDS011;64447;52.140;5.602;2023-03-11T05:22:49;4.88;;;1.98;;
35592;SDS011;64447;52.140;5.602;2023-03-11T05:25:15;4.45;;;1.98;;
35592;SDS011;64447;52.140;5.602;2023-03-11T05:31:06;2.50;;;1.48;;
35592;SDS011;64447;52.140;5.602;2023-03-11T05:33:33;4.85;;;1.67;;
35592;SDS011;64447;52.140;5.602;2023-03-11T05:36:06;1.92;;;1.58;;
35592;SDS011;64447;52.140;5.602;2023-03-11T05:38:33;5.32;;;1.50;;
35592;SDS011;64447;52.140;5.602;2023-03-11T05:40:59;3.30;;;1.42;;
35592;SDS011;64447;52.140;5.602;2023-03-11T05:43:25;2.97;;;1.55;;
35592;SDS011;64447;52.140;5.602;2023-03-11T05:45:51;3.97;;;1.98;;
35592;SDS011;64447;52.140;5.602;2023-03-11T05:48:16;6.70;;;1.88;;
35592;SDS011;64447;52.140;5.602;2023-03-11T05:50:42;3.80;;;1.67;;
35592;SDS011;64447;52.140;5.602;2023-03-11T05:53:07;5.03;;;2.10;;
35592;SDS011;64447;52.140;5.602;2023-03-11T05:55:33;2.20;;;1.58;;
35592;SDS011;64447;52.140;5.602;2023-03-11T06:01:20;2.95;;;1.73;;
35592;SDS011;64447;52.140;5.602;2023-03-11T06:03:46;5.68;;;1.83;;
35592;SDS011;64447;52.140;5.602;2023-03-11T06:06:12;5.57;;;1.90;;
35592;SDS011;64447;52.140;5.602;2023-03-11T06:08:38;3.88;;;2.25;;
35592;SDS011;64447;52.140;5.602;2023-03-11T06:11:05;5.30;;;2.20;;
35592;SDS011;64447;52.140;5.602;2023-03-11T06:13:32;6.18;;;2.67;;
35592;SDS011;64447;52.140;5.602;2023-03-11T06:15:58;3.65;;;1.85;;
35592;SDS011;64447;52.140;5.602;2023-03-11T06:18:24;6.68;;;1.90;;
35592;SDS011;64447;52.140;5.602;2023-03-11T06:20:50;4.18;;;1.75;;
35592;SDS011;64447;52.140;5.602;2023-03-11T06:23:23;8.13;;;2.40;;
35592;SDS011;64447;52.140;5.602;2023-03-11T06:32:46;2.85;;;1.83;;
35592;SDS011;64447;52.140;5.602;2023-03-11T06:35:13;7.50;;;1.90;;
35592;SDS011;64447;52.140;5.602;2023-03-11T06:37:38;6.40;;;2.17;;
35592;SDS011;64447;52.140;5.602;2023-03-11T06:40:05;4.43;;;2.13;;
35592;SDS011;64447;52.140;5.602;2023-03-11T06:45:54;10.52;;;3.60;;
35592;SDS011;64447;52.140;5.602;2023-03-11T06:48:20;11.38;;;4.38;;
35592;SDS011;64447;52.140;5.602;2023-03-11T06:50:52;10.27;;;3.53;;
35592;SDS011;64447;52.140;5.602;2023-03-11T06:53:19;6.57;;;3.55;;
35592;SDS011;64447;52.140;5.602;2023-03-11T06:55:44;7.85;;;3.05;;
35592;SDS011;64447;52.140;5.602;2023-03-11T07:01:35;6.57;;;2.88;;
35592;SDS011;64447;52.140;5.602;2023-03-11T07:04:01;7.18;;;3.42;;
35592;SDS011;64447;52.140;5.602;2023-03-11T07:06:26;5.88;;;3.60;;
35592;SDS011;64447;52.140;5.602;2023-03-11T07:08:52;6.72;;;3.63;;
35592;SDS011;64447;52.140;5.602;2023-03-11T07:11:20;11.23;;;4.25;;
35592;SDS011;64447;52.140;5.602;2023-03-11T07:13:47;18.23;;;6.60;;
35592;SDS011;64447;52.140;5.602;2023-03-11T07:16:14;11.57;;;5.43;;
35592;SDS011;64447;52.140;5.602;2023-03-11T07:18:42;9.85;;;5.70;;
35592;SDS011;64447;52.140;5.602;2023-03-11T07:21:10;7.05;;;4.47;;
35592;SDS011;64447;52.140;5.602;2023-03-11T07:23:40;8.52;;;3.65;;
35592;SDS011;64447;52.140;5.602;2023-03-11T07:26:11;4.97;;;2.75;;
35592;SDS011;64447;52.140;5.602;2023-03-11T07:31:59;5.40;;;2.72;;
35592;SDS011;64447;52.140;5.602;2023-03-11T07:34:25;5.53;;;2.33;;
35592;SDS011;64447;52.140;5.602;2023-03-11T07:36:50;4.55;;;2.45;;
35592;SDS011;64447;52.140;5.602;2023-03-11T07:39:16;7.60;;;2.42;;
35592;SDS011;64447;52.140;5.602;2023-03-11T07:41:43;5.80;;;2.10;;
35592;SDS011;64447;52.140;5.602;2023-03-11T07:44:10;5.18;;;2.47;;
35592;SDS011;64447;52.140;5.602;2023-03-11T07:46:36;4.68;;;2.40;;
35592;SDS011;64447;52.140;5.602;2023-03-11T07:49:02;6.70;;;2.83;;
35592;SDS011;64447;52.140;5.602;2023-03-11T07:51:29;4.90;;;2.58;;
35592;SDS011;64447;52.140;5.602;2023-03-11T07:53:57;4.13;;;1.85;;
35592;SDS011;64447;52.140;5.602;2023-03-11T07:56:24;3.92;;;2.03;;
35592;SDS011;64447;52.140;5.602;2023-03-11T08:02:13;5.28;;;2.65;;
35592;SDS011;64447;52.140;5.602;2023-03-11T08:04:39;4.05;;;1.67;;
35592;SDS011;64447;52.140;5.602;2023-03-11T08:07:05;2.83;;;2.15;;
35592;SDS011;64447;52.140;5.602;2023-03-11T08:09:30;4.00;;;2.13;;
35592;SDS011;64447;52.140;5.602;2023-03-11T08:11:56;6.97;;;2.78;;
35592;SDS011;64447;52.140;5.602;2023-03-11T08:14:21;6.75;;;2.53;;
35592;SDS011;64447;52.140;5.602;2023-03-11T08:16:47;4.85;;;2.90;;
35592;SDS011;64447;52.140;5.602;2023-03-11T08:19:13;7.30;;;3.17;;
35592;SDS011;64447;52.140;5.602;2023-03-11T08:21:38;5.63;;;2.90;;
35592;SDS011;64447;52.140;5.602;2023-03-11T08:24:05;5.75;;;3.30;;
35592;SDS011;64447;52.140;5.602;2023-03-11T08:26:31;5.88;;;3.30;;
35592;SDS011;64447;52.140;5.602;2023-03-11T08:32:18;6.35;;;3.25;;
35592;SDS011;64447;52.140;5.602;2023-03-11T08:34:44;6.05;;;3.10;;
35592;SDS011;64447;52.140;5.602;2023-03-11T08:37:09;4.32;;;3.10;;
35592;SDS011;64447;52.140;5.602;2023-03-11T08:39:35;5.25;;;2.50;;
35592;SDS011;64447;52.140;5.602;2023-03-11T08:42:01;5.97;;;2.90;;
35592;SDS011;64447;52.140;5.602;2023-03-11T08:44:27;14.32;;;3.28;;
35592;SDS011;64447;52.140;5.602;2023-03-11T08:46:53;6.55;;;3.45;;
35592;SDS011;64447;52.140;5.602;2023-03-11T08:49:19;6.65;;;2.38;;
35592;SDS011;64447;52.140;5.602;2023-03-11T08:51:44;6.85;;;2.53;;
35592;SDS011;64447;52.140;5.602;2023-03-11T08:54:10;5.47;;;2.13;;
35592;SDS011;64447;52.140;5.602;2023-03-11T08:56:35;5.35;;;2.50;;
35592;SDS011;64447;52.140;5.602;2023-03-11T09:02:24;6.32;;;2.08;;
35592;SDS011;64447;52.140;5.602;2023-03-11T09:04:49;6.30;;;1.92;;
35592;SDS011;64447;52.140;5.602;2023-03-11T09:07:15;4.53;;;2.22;;
35592;SDS011;64447;52.140;5.602;2023-03-11T09:09:42;2.67;;;1.58;;
35592;SDS011;64447;52.140;5.602;2023-03-11T09:12:07;4.35;;;2.00;;
35592;SDS011;64447;52.140;5.602;2023-03-11T09:14:37;2.17;;;1.80;;
35592;SDS011;64447;52.140;5.602;2023-03-11T09:17:07;3.85;;;1.48;;
35592;SDS011;64447;52.140;5.602;2023-03-11T09:19:33;2.85;;;1.60;;
35592;SDS011;64447;52.140;5.602;2023-03-11T09:21:59;3.33;;;1.45;;
35592;SDS011;64447;52.140;5.602;2023-03-11T09:24:26;5.68;;;1.75;;
35592;SDS011;64447;52.140;5.602;2023-03-11T09:26:52;2.15;;;1.50;;
35592;SDS011;64447;52.140;5.602;2023-03-11T09:32:39;7.07;;;1.50;;
35592;SDS011;64447;52.140;5.602;2023-03-11T09:35:05;6.32;;;1.33;;
35592;SDS011;64447;52.140;5.602;2023-03-11T09:37:30;4.38;;;1.10;;
35592;SDS011;64447;52.140;5.602;2023-03-11T09:39:56;4.47;;;1.30;;
35592;SDS011;64447;52.140;5.602;2023-03-11T09:42:26;2.25;;;1.23;;
35592;SDS011;64447;52.140;5.602;2023-03-11T09:44:55;3.00;;;1.38;;
35592;SDS011;64447;52.140;5.602;2023-03-11T09:52:57;3.38;;;1.30;;
35592;SDS011;64447;52.140;5.602;2023-03-11T09:58:16;4.13;;;1.17;;
35592;SDS011;64447;52.140;5.602;2023-03-11T10:00:50;8.35;;;1.42;;
35592;SDS011;64447;52.140;5.602;2023-03-11T10:03:20;2.33;;;1.10;;
35592;SDS011;64447;52.140;5.602;2023-03-11T10:05:52;4.03;;;1.13;;
35592;SDS011;64447;52.140;5.602;2023-03-11T10:08:32;7.20;;;1.25;;
35592;SDS011;64447;52.140;5.602;2023-03-11T10:14:05;1.63;;;0.98;;
35592;SDS011;64447;52.140;5.602;2023-03-11T10:22:26;4.97;;;1.52;;
35592;SDS011;64447;52.140;5.602;2023-03-11T10:31:08;8.95;;;2.10;;
35592;SDS011;64447;52.140;5.602;2023-03-11T10:33:46;2.95;;;1.30;;
35592;SDS011;64447;52.140;5.602;2023-03-11T10:36:20;2.83;;;1.40;;
35592;SDS011;64447;52.140;5.602;2023-03-11T10:38:50;3.97;;;1.08;;
35592;SDS011;64447;52.140;5.602;2023-03-11T10:47:16;2.83;;;1.50;;
35592;SDS011;64447;52.140;5.602;2023-03-11T10:49:47;1.92;;;1.00;;
35592;SDS011;64447;52.140;5.602;2023-03-11T10:52:13;4.78;;;1.20;;
35592;SDS011;64447;52.140;5.602;2023-03-11T10:54:40;5.00;;;1.80;;
35592;SDS011;64447;52.140;5.602;2023-03-11T11:03:16;7.38;;;1.75;;
35592;SDS011;64447;52.140;5.602;2023-03-11T11:05:55;3.97;;;1.65;;
35592;SDS011;64447;52.140;5.602;2023-03-11T11:08:23;4.38;;;1.30;;
35592;SDS011;64447;52.140;5.602;2023-03-11T11:10:53;4.38;;;1.25;;
35592;SDS011;64447;52.140;5.602;2023-03-11T11:13:27;3.13;;;1.25;;
35592;SDS011;64447;52.140;5.602;2023-03-11T11:16:03;4.38;;;1.70;;
35592;SDS011;64447;52.140;5.602;2023-03-11T11:18:56;6.70;;;1.60;;
35592;SDS011;64447;52.140;5.602;2023-03-11T11:21:38;4.40;;;1.40;;
35592;SDS011;64447;52.140;5.602;2023-03-11T11:26:35;2.85;;;1.10;;
35592;SDS011;64447;52.140;5.602;2023-03-11T11:29:06;4.13;;;1.25;;
35592;SDS011;64447;52.140;5.602;2023-03-11T11:31:40;5.47;;;1.27;;
35592;SDS011;64447;52.140;5.602;2023-03-11T11:34:28;2.08;;;1.30;;
35592;SDS011;64447;52.140;5.602;2023-03-11T11:36:56;3.08;;;1.17;;
35592;SDS011;64447;52.140;5.602;2023-03-11T11:39:29;4.53;;;1.38;;
35592;SDS011;64447;52.140;5.602;2023-03-11T11:42:00;4.07;;;1.38;;
35592;SDS011;64447;52.140;5.602;2023-03-11T11:44:31;3.00;;;1.20;;
35592;SDS011;64447;52.140;5.602;2023-03-11T11:47:02;5.22;;;1.50;;
35592;SDS011;64447;52.140;5.602;2023-03-11T11:49:36;2.38;;;1.38;;
35592;SDS011;64447;52.140;5.602;2023-03-11T11:52:21;4.28;;;1.35;;
35592;SDS011;64447;52.140;5.602;2023-03-11T11:54:52;3.78;;;1.58;;
35592;SDS011;64447;52.140;5.602;2023-03-11T11:57:22;4.43;;;1.85;;
35592;SDS011;64447;52.140;5.602;2023-03-11T11:59:48;3.13;;;1.42;;
35592;SDS011;64447;52.140;5.602;2023-03-11T12:12:44;4.35;;;1.45;;
35592;SDS011;64447;52.140;5.602;2023-03-11T12:15:49;4.18;;;1.63;;
35592;SDS011;64447;52.140;5.602;2023-03-11T12:18:39;3.15;;;1.17;;
35592;SDS011;64447;52.140;5.602;2023-03-11T12:26:56;5.20;;;1.48;;
35592;SDS011;64447;52.140;5.602;2023-03-11T12:29:33;4.90;;;1.27;;
35592;SDS011;64447;52.140;5.602;2023-03-11T12:32:23;5.75;;;1.60;;
35592;SDS011;64447;52.140;5.602;2023-03-11T12:34:52;4.15;;;1.50;;
35592;SDS011;64447;52.140;5.602;2023-03-11T12:37:18;3.55;;;1.40;;
35592;SDS011;64447;52.140;5.602;2023-03-11T12:39:47;3.00;;;1.30;;
35592;SDS011;64447;52.140;5.602;2023-03-11T12:44:40;3.15;;;1.25;;
35592;SDS011;64447;52.140;5.602;2023-03-11T12:49:41;5.20;;;1.63;;
35592;SDS011;64447;52.140;5.602;2023-03-11T12:54:47;3.00;;;1.02;;
35592;SDS011;64447;52.140;5.602;2023-03-11T12:59:56;3.00;;;1.02;;
35592;SDS011;64447;52.140;5.602;2023-03-11T13:10:45;4.53;;;1.42;;
35592;SDS011;64447;52.140;5.602;2023-03-11T13:18:36;3.17;;;1.30;;
35592;SDS011;64447;52.140;5.602;2023-03-11T13:21:03;2.47;;;1.33;;
35592;SDS011;64447;52.140;5.602;2023-03-11T13:23:49;5.05;;;1.55;;
35592;SDS011;64447;52.140;5.602;2023-03-11T13:26:20;1.98;;;1.02;;
35592;SDS011;64447;52.140;5.602;2023-03-11T13:31:53;1.83;;;1.27;;
35592;SDS011;64447;52.140;5.602;2023-03-11T13:34:44;5.82;;;2.83;;
35592;SDS011;64447;52.140;5.602;2023-03-11T13:40:11;4.20;;;1.55;;
35592;SDS011;64447;52.140;5.602;2023-03-11T13:42:59;4.15;;;1.88;;
35592;SDS011;64447;52.140;5.602;2023-03-11T13:45:28;3.95;;;1.45;;
35592;SDS011;64447;52.140;5.602;2023-03-11T13:47:57;4.50;;;2.25;;
35592;SDS011;64447;52.140;5.602;2023-03-11T13:50:30;2.03;;;1.20;;
35592;SDS011;64447;52.140;5.602;2023-03-11T13:53:01;3.13;;;1.48;;
35592;SDS011;64447;52.140;5.602;2023-03-11T13:58:26;5.40;;;2.13;;
35592;SDS011;64447;52.140;5.602;2023-03-11T14:04:12;3.25;;;1.40;;
35592;SDS011;64447;52.140;5.602;2023-03-11T14:06:44;25.38;;;14.63;;
35592;SDS011;64447;52.140;5.602;2023-03-11T14:09:14;11.27;;;6.00;;
35592;SDS011;64447;52.140;5.602;2023-03-11T14:11:43;3.08;;;1.90;;
35592;SDS011;64447;52.140;5.602;2023-03-11T14:14:46;5.65;;;3.15;;
35592;SDS011;64447;52.140;5.602;2023-03-11T14:17:11;4.13;;;2.25;;
35592;SDS011;64447;52.140;5.602;2023-03-11T14:19:39;4.65;;;1.55;;
35592;SDS011;64447;52.140;5.602;2023-03-11T14:22:06;2.85;;;1.48;;
35592;SDS011;64447;52.140;5.602;2023-03-11T14:24:33;5.88;;;4.10;;
35592;SDS011;64447;52.140;5.602;2023-03-11T14:27:00;3.13;;;2.40;;
35592;SDS011;64447;52.140;5.602;2023-03-11T14:29:32;3.90;;;3.00;;
35592;SDS011;64447;52.140;5.602;2023-03-11T14:34:56;3.90;;;2.95;;
35592;SDS011;64447;52.140;5.602;2023-03-11T14:37:35;2.22;;;1.70;;
35592;SDS011;64447;52.140;5.602;2023-03-11T14:40:03;3.15;;;1.23;;
35592;SDS011;64447;52.140;5.602;2023-03-11T14:42:45;3.45;;;2.22;;
35592;SDS011;64447;52.140;5.602;2023-03-11T14:45:14;4.07;;;1.60;;
35592;SDS011;64447;52.140;5.602;2023-03-11T14:47:43;3.85;;;2.28;;
35592;SDS011;64447;52.140;5.602;2023-03-11T14:50:19;6.75;;;3.38;;
35592;SDS011;64447;52.140;5.602;2023-03-11T14:55:40;3.05;;;1.30;;
35592;SDS011;64447;52.140;5.602;2023-03-11T15:03:49;2.78;;;1.60;;
35592;SDS011;64447;52.140;5.602;2023-03-11T15:06:29;2.85;;;1.38;;
35592;SDS011;64447;52.140;5.602;2023-03-11T15:08:57;4.07;;;1.35;;
35592;SDS011;64447;52.140;5.602;2023-03-11T15:11:29;2.63;;;1.40;;
35592;SDS011;64447;52.140;5.602;2023-03-11T15:19:41;5.95;;;2.10;;
35592;SDS011;64447;52.140;5.602;2023-03-11T15:24:52;9.32;;;3.80;;
35592;SDS011;64447;52.140;5.602;2023-03-11T15:27:32;11.75;;;3.97;;
35592;SDS011;64447;52.140;5.602;2023-03-11T15:33:22;3.15;;;1.10;;
35592;SDS011;64447;52.140;5.602;2023-03-11T15:35:55;2.75;;;1.30;;
35592;SDS011;64447;52.140;5.602;2023-03-11T15:38:23;4.55;;;1.70;;
35592;SDS011;64447;52.140;5.602;2023-03-11T15:40:56;2.10;;;1.15;;
35592;SDS011;64447;52.140;5.602;2023-03-11T15:43:31;2.17;;;1.55;;
35592;SDS011;64447;52.140;5.602;2023-03-11T15:49:26;1.67;;;1.30;;
35592;SDS011;64447;52.140;5.602;2023-03-11T15:51:57;4.82;;;1.40;;
35592;SDS011;64447;52.140;5.602;2023-03-11T15:54:23;3.83;;;1.38;;
35592;SDS011;64447;52.140;5.602;2023-03-11T15:56:49;3.97;;;1.23;;
35592;SDS011;64447;52.140;5.602;2023-03-11T15:59:15;4.85;;;1.35;;
35592;SDS011;64447;52.140;5.602;2023-03-11T16:05:05;3.70;;;1.48;;
35592;SDS011;64447;52.140;5.602;2023-03-11T16:07:37;3.70;;;1.60;;
35592;SDS011;64447;52.140;5.602;2023-03-11T16:10:03;4.50;;;1.40;;
35592;SDS011;64447;52.140;5.602;2023-03-11T16:12:29;2.85;;;1.13;;
35592;SDS011;64447;52.140;5.602;2023-03-11T16:14:55;3.80;;;1.10;;
35592;SDS011;64447;52.140;5.602;2023-03-11T16:20:55;4.07;;;1.63;;
35592;SDS011;64447;52.140;5.602;2023-03-11T16:23:22;2.72;;;1.52;;
35592;SDS011;64447;52.140;5.602;2023-03-11T16:25:50;4.63;;;1.30;;
35592;SDS011;64447;52.140;5.602;2023-03-11T16:28:22;4.78;;;1.73;;
35592;SDS011;64447;52.140;5.602;2023-03-11T16:30:50;5.55;;;1.80;;
35592;SDS011;64447;52.140;5.602;2023-03-11T16:33:15;2.33;;;1.73;;
35592;SDS011;64447;52.140;5.602;2023-03-11T16:35:41;3.33;;;1.40;;
35592;SDS011;64447;52.140;5.602;2023-03-11T16:38:07;3.13;;;1.45;;
35592;SDS011;64447;52.140;5.602;2023-03-11T16:40:33;3.70;;;1.55;;
35592;SDS011;64447;52.140;5.602;2023-03-11T16:43:00;4.00;;;2.10;;
35592;SDS011;64447;52.140;5.602;2023-03-11T16:45:28;2.83;;;1.75;;
35592;SDS011;64447;52.140;5.602;2023-03-11T16:47:53;2.75;;;1.80;;
35592;SDS011;64447;52.140;5.602;2023-03-11T16:50:19;3.75;;;2.08;;
35592;SDS011;64447;52.140;5.602;2023-03-11T16:52:47;3.35;;;1.80;;
35592;SDS011;64447;52.140;5.602;2023-03-11T16:55:13;2.78;;;1.40;;
35592;SDS011;64447;52.140;5.602;2023-03-11T16:57:38;4.63;;;1.65;;
35592;SDS011;64447;52.140;5.602;2023-03-11T17:00:04;3.65;;;1.83;;
35592;SDS011;64447;52.140;5.602;2023-03-11T17:05:59;4.32;;;2.60;;
35592;SDS011;64447;52.140;5.602;2023-03-11T17:08:26;3.63;;;2.30;;
35592;SDS011;64447;52.140;5.602;2023-03-11T17:10:51;3.28;;;2.50;;
35592;SDS011;64447;52.140;5.602;2023-03-11T17:13:17;6.00;;;2.60;;
35592;SDS011;64447;52.140;5.602;2023-03-11T17:15:42;4.30;;;2.28;;
35592;SDS011;64447;52.140;5.602;2023-03-11T17:18:08;6.85;;;2.85;;
35592;SDS011;64447;52.140;5.602;2023-03-11T17:20:37;4.10;;;2.50;;
35592;SDS011;64447;52.140;5.602;2023-03-11T17:23:04;5.85;;;2.22;;
35592;SDS011;64447;52.140;5.602;2023-03-11T17:25:29;4.22;;;2.30;;
35592;SDS011;64447;52.140;5.602;2023-03-11T17:27:56;3.20;;;2.15;;
35592;SDS011;64447;52.140;5.602;2023-03-11T17:30:22;3.67;;;2.45;;
35592;SDS011;64447;52.140;5.602;2023-03-11T17:36:10;5.38;;;3.10;;
35592;SDS011;64447;52.140;5.602;2023-03-11T17:38:38;4.50;;;3.17;;
35592;SDS011;64447;52.140;5.602;2023-03-11T17:41:10;5.35;;;3.63;;
35592;SDS011;64447;52.140;5.602;2023-03-11T17:43:38;6.43;;;4.57;;
35592;SDS011;64447;52.140;5.602;2023-03-11T17:46:07;10.05;;;5.45;;
35592;SDS011;64447;52.140;5.602;2023-03-11T17:48:35;8.77;;;4.82;;
35592;SDS011;64447;52.140;5.602;2023-03-11T17:51:05;10.30;;;7.10;;
35592;SDS011;64447;52.140;5.602;2023-03-11T17:53:31;11.90;;;7.50;;
35592;SDS011;64447;52.140;5.602;2023-03-11T17:56:04;8.70;;;6.22;;
35592;SDS011;64447;52.140;5.602;2023-03-11T17:58:31;11.90;;;6.68;;
35592;SDS011;64447;52.140;5.602;2023-03-11T18:00:57;10.27;;;7.63;;
35592;SDS011;64447;52.140;5.602;2023-03-11T18:03:24;11.48;;;7.50;;
35592;SDS011;64447;52.140;5.602;2023-03-11T18:05:53;9.77;;;7.45;;
35592;SDS011;64447;52.140;5.602;2023-03-11T18:08:20;10.25;;;6.57;;
35592;SDS011;64447;52.140;5.602;2023-03-11T18:10:53;8.57;;;6.45;;
35592;SDS011;64447;52.140;5.602;2023-03-11T18:13:21;11.40;;;7.20;;
35592;SDS011;64447;52.140;5.602;2023-03-11T18:15:54;14.55;;;7.50;;